Time;durP1;ratioP1;P1;durP2;ratioP2;P2;SDS_P1;SDS_P2;PMS_P1;PMS_P2;Temp;Humidity;BMP_temperature;BMP_pressure;BME280_temperature;BME280_humidity;BME280_pressure;Samples;Min_cycle;Max_cycle;Signal;HPM_P1;HPM_P2
2021/04/11 00:01:08;;;;;;;13.23;5.63;;;;;;;5.74;38.75;101588.91;126102;1099;104365;-78
2021/04/11 00:03:37;;;;;;;11.47;4.83;;;;;;;5.73;38.63;101581.91;126295;1099;104812;-78
2021/04/11 00:06:06;;;;;;;14.40;5.30;;;;;;;5.73;38.79;101587.12;126227;1099;104133;-78
2021/04/11 00:08:36;;;;;;;12.37;4.93;;;;;;;5.71;38.53;101588.69;126183;1099;104264;-78
2021/04/11 00:11:06;;;;;;;13.77;5.40;;;;;;;5.71;38.67;101577.38;126239;1099;104172;-78
2021/04/11 00:13:37;;;;;;;13.20;5.50;;;;;;;5.69;38.54;101585.08;126251;1099;104229;-78
2021/04/11 00:16:07;;;;;;;14.40;5.77;;;;;;;5.69;38.38;101577.27;126288;1099;104143;-78
2021/04/11 00:18:37;;;;;;;14.77;5.93;;;;;;;5.67;38.29;101578.86;126269;1099;104286;-78
2021/04/11 00:21:06;;;;;;;12.97;5.40;;;;;;;5.65;39.09;101577.82;126307;1099;104197;-78
2021/04/11 00:23:35;;;;;;;13.03;5.73;;;;;;;5.65;39.01;101582.14;126238;1099;104277;-78
2021/04/11 00:26:05;;;;;;;15.17;5.73;;;;;;;5.63;38.77;101578.52;126289;1099;104150;-78
2021/04/11 00:28:34;;;;;;;14.60;5.90;;;;;;;5.57;38.80;101577.27;126240;1099;104143;-78
2021/04/11 00:31:03;;;;;;;19.00;7.60;;;;;;;5.50;39.04;101580.23;126216;1099;104547;-79
2021/04/11 00:33:35;;;;;;;18.77;7.03;;;;;;;5.48;39.02;101578.30;126297;1099;104150;-77
2021/04/11 00:36:07;;;;;;;19.33;8.03;;;;;;;5.46;39.11;101579.89;126314;1099;104159;-77
2021/04/11 00:38:36;;;;;;;19.13;7.33;;;;;;;5.42;39.54;101576.13;126259;1098;104371;-77
2021/04/11 00:41:18;;;;;;;16.70;7.37;;;;;;;5.39;39.27;101576.84;126242;1099;104175;-78
2021/04/11 00:43:47;;;;;;;19.73;7.93;;;;;;;5.36;39.44;101579.22;126247;1099;104166;-77
2021/04/11 00:46:38;;;;;;;21.13;8.13;;;;;;;5.35;39.60;101576.50;126293;1098;104268;-77
2021/04/11 00:49:11;;;;;;;21.00;8.23;;;;;;;5.32;39.37;101579.77;126251;1099;104709;-77
2021/04/11 00:51:40;;;;;;;21.27;7.73;;;;;;;5.31;39.66;101588.35;126163;1097;108731;-78
2021/04/11 00:54:09;;;;;;;20.23;8.07;;;;;;;5.29;40.15;101587.34;126260;1098;102042;-77
2021/04/11 00:56:38;;;;;;;24.33;9.13;;;;;;;5.29;39.59;101589.05;126269;1099;104156;-78
2021/04/11 00:59:09;;;;;;;18.80;8.13;;;;;;;5.28;39.81;101585.52;126269;1098;104137;-78
2021/04/11 01:01:41;;;;;;;20.63;7.83;;;;;;;5.25;39.79;101585.33;126194;1099;104143;-78
2021/04/11 01:04:11;;;;;;;20.90;8.63;;;;;;;5.26;39.66;101592.32;126234;1099;104287;-78
2021/04/11 01:06:43;;;;;;;22.20;9.00;;;;;;;5.25;39.69;101584.40;126232;1099;104322;-78
2021/04/11 01:09:17;;;;;;;21.27;8.00;;;;;;;5.22;40.10;101585.09;126303;1099;104152;-78
2021/04/11 01:11:47;;;;;;;21.67;7.70;;;;;;;5.20;39.50;101587.59;126214;1098;104242;-78
2021/04/11 01:14:18;;;;;;;20.57;7.77;;;;;;;5.19;40.37;101582.27;126214;1099;104290;-78
2021/04/11 01:16:47;;;;;;;20.03;8.17;;;;;;;5.18;39.72;101590.85;126267;1098;104201;-77
2021/04/11 01:19:25;;;;;;;20.60;8.47;;;;;;;5.14;40.12;101579.32;126315;1099;104204;-77
2021/04/11 01:22:05;;;;;;;21.27;8.37;;;;;;;5.13;40.01;101587.02;126286;1099;104216;-78
2021/04/11 01:24:41;;;;;;;18.87;7.70;;;;;;;5.13;40.11;101589.61;126302;1099;104213;-78
2021/04/11 01:27:15;;;;;;;18.97;7.77;;;;;;;5.10;40.42;101592.87;126271;1098;104146;-78
2021/04/11 01:29:44;;;;;;;19.80;8.03;;;;;;;5.08;40.64;101585.73;126294;1099;104146;-78
2021/04/11 01:32:16;;;;;;;21.53;8.20;;;;;;;5.03;40.79;101591.52;126214;1099;104220;-77
2021/04/11 01:34:48;;;;;;;22.23;8.10;;;;;;;4.99;40.33;101586.86;126272;1099;104155;-77
2021/04/11 01:37:21;;;;;;;22.80;8.50;;;;;;;4.98;40.61;101598.05;126279;1099;104143;-77
2021/04/11 01:39:51;;;;;;;23.23;8.63;;;;;;;4.96;40.45;101586.64;126287;1099;104178;-78
2021/04/11 01:42:21;;;;;;;19.90;8.43;;;;;;;4.93;40.56;101595.91;126196;1099;104249;-77
2021/04/11 01:44:52;;;;;;;19.83;8.00;;;;;;;4.89;41.07;101588.66;126286;1099;104319;-77
2021/04/11 01:47:22;;;;;;;18.73;7.73;;;;;;;4.83;41.38;101595.21;126200;1098;104239;-77
2021/04/11 01:49:51;;;;;;;23.33;8.73;;;;;;;4.78;40.68;101595.63;126252;1099;104137;-78
2021/04/11 01:52:24;;;;;;;22.57;10.40;;;;;;;4.72;41.33;101595.16;126108;1099;104207;-77
2021/04/11 01:54:54;;;;;;;;;;;;;;;4.65;41.58;101602.49;126264;1099;104220;-78
2021/04/11 01:57:26;;;;;;;26.93;10.53;;;;;;;4.58;41.41;101592.43;126235;1099;104155;-78
2021/04/11 02:00:00;;;;;;;;;;;;;;;4.53;41.75;101600.64;126285;1099;104197;-78
2021/04/11 02:02:29;;;;;;;29.00;10.93;;;;;;;4.48;41.92;101595.98;126265;1099;104211;-78
2021/04/11 02:04:57;;;;;;;28.17;11.87;;;;;;;4.43;41.02;101597.33;126306;1099;104149;-78
2021/04/11 02:07:27;;;;;;;26.47;12.70;;;;;;;4.39;41.38;101605.66;126211;1099;104281;-78
2021/04/11 02:09:59;;;;;;;31.00;13.83;;;;;;;4.36;41.32;101596.73;126274;1099;104586;-78
2021/04/11 02:12:36;;;;;;;31.00;12.93;;;;;;;4.29;41.27;101606.64;126283;1099;104576;-78
2021/04/11 02:15:19;;;;;;;33.90;14.20;;;;;;;4.25;41.72;101606.28;126326;1099;104149;-78
2021/04/11 02:17:49;;;;;;;30.75;13.40;;;;;;;4.22;41.55;101611.23;126309;1099;104146;-78
2021/04/11 02:20:21;;;;;;;29.57;13.43;;;;;;;4.18;41.50;101617.89;126145;1099;104855;-78
2021/04/11 02:22:51;;;;;;;32.85;14.40;;;;;;;4.18;41.92;101614.40;126044;1099;104175;-78
2021/04/11 02:25:24;;;;;;;31.23;12.40;;;;;;;4.17;42.60;101608.27;126166;1099;104839;-78
2021/04/11 02:28:02;;;;;;;30.73;12.97;;;;;;;4.12;42.12;101610.50;126191;1099;104220;-78
2021/04/11 02:30:42;;;;;;;30.97;14.10;;;;;;;4.13;41.99;101611.44;126184;1099;104155;-78
2021/04/11 02:33:11;;;;;;;29.97;12.67;;;;;;;4.12;42.34;101607.91;126089;1099;104141;-78
2021/04/11 02:35:40;;;;;;;30.93;13.23;;;;;;;4.12;42.52;101609.61;126239;1098;103106;-78
2021/04/11 02:38:12;;;;;;;31.20;12.93;;;;;;;4.13;42.32;101614.03;126154;1099;104146;-77
2021/04/11 02:40:46;;;;;;;27.60;12.27;;;;;;;4.12;42.71;101615.70;126169;1099;104175;-78
2021/04/11 02:43:20;;;;;;;31.90;12.47;;;;;;;4.13;42.40;101621.83;126136;1099;104723;-77
2021/04/11 02:45:49;;;;;;;28.93;13.53;;;;;;;4.12;42.50;101617.41;126092;1099;104301;-77
2021/04/11 02:48:19;;;;;;;30.17;13.67;;;;;;;4.12;42.49;101622.60;125919;1099;104275;-78
2021/04/11 02:51:00;;;;;;;31.67;12.97;;;;;;;4.09;42.58;101619.76;126202;1099;104233;-78
2021/04/11 02:53:38;;;;;;;31.03;12.80;;;;;;;4.07;42.75;101621.34;126277;1099;104240;-78
2021/04/11 02:56:09;;;;;;;33.50;13.63;;;;;;;4.04;42.73;101615.89;126246;1099;104142;-79
2021/04/11 02:58:42;;;;;;;39.53;14.47;;;;;;;4.01;43.31;101618.25;126165;1099;104251;-78
2021/04/11 03:01:15;;;;;;;33.57;14.57;;;;;;;3.98;43.15;101628.39;126266;1099;104280;-77
2021/04/11 03:03:46;;;;;;;34.83;14.23;;;;;;;3.92;43.44;101632.28;126225;1099;104169;-78
2021/04/11 03:06:19;;;;;;;35.27;14.70;;;;;;;3.89;43.40;101629.44;126328;1099;104268;-78
2021/04/11 03:08:50;;;;;;;35.80;15.13;;;;;;;3.86;43.67;101636.09;126294;1099;104143;-78
2021/04/11 03:11:26;;;;;;;;;;;;;;;3.81;43.94;101632.22;126293;1099;104149;-79
2021/04/11 03:13:56;;;;;;;37.90;15.27;;;;;;;3.77;43.53;101631.97;125206;1099;104123;-78
2021/04/11 03:16:27;;;;;;;33.60;13.47;;;;;;;3.70;43.59;101633.95;125310;1099;104305;-79
2021/04/11 03:18:58;;;;;;;36.10;14.87;;;;;;;3.66;43.10;101637.99;125320;1102;104302;-78
2021/04/11 03:21:29;;;;;;;36.70;15.43;;;;;;;3.63;43.45;101642.94;125305;1099;105355;-79
2021/04/11 03:23:59;;;;;;;37.10;14.47;;;;;;;3.60;43.03;101648.77;125183;1100;104201;-78
2021/04/11 03:26:36;;;;;;;36.40;15.27;;;;;;;3.57;43.86;101651.11;125250;1099;104226;-77
2021/04/11 03:29:12;;;;;;;36.10;14.83;;;;;;;3.55;43.11;101655.28;125261;1099;104182;-77
2021/04/11 03:31:45;;;;;;;34.87;15.17;;;;;;;3.52;43.94;101657.63;125319;1099;104191;-78
2021/04/11 03:34:18;;;;;;;37.13;14.57;;;;;;;3.51;43.69;101658.39;125234;1099;104261;-78
2021/04/11 03:36:48;;;;;;;34.80;14.83;;;;;;;3.51;44.46;101663.58;125228;1099;104325;-78
2021/04/11 03:39:17;;;;;;;31.43;15.20;;;;;;;3.51;43.84;101663.58;125270;1102;104181;-78
2021/04/11 03:41:49;;;;;;;39.20;16.40;;;;;;;3.53;43.59;101664.61;125301;1099;104421;-78
2021/04/11 03:44:23;;;;;;;35.00;14.30;;;;;;;3.56;44.32;101667.45;125248;1099;104147;-78
2021/04/11 03:47:02;;;;;;;34.80;16.10;;;;;;;3.57;44.07;101673.58;126255;1099;104583;-78
2021/04/11 03:49:40;;;;;;;37.40;16.03;;;;;;;3.59;44.37;101677.20;126265;1099;104262;-78
2021/04/11 03:52:20;;;;;;;39.83;15.10;;;;;;;3.65;43.90;101679.40;126267;1099;104140;-78
2021/04/11 03:54:49;;;;;;;34.20;15.40;;;;;;;3.68;44.60;101675.36;126247;1099;104146;-78
2021/04/11 03:57:23;;;;;;;35.20;15.23;;;;;;;3.76;44.02;101675.98;126290;1099;104146;-78
2021/04/11 04:00:03;;;;;;;34.60;15.70;;;;;;;3.83;44.67;101677.38;126240;1099;104130;-78
2021/04/11 04:02:46;;;;;;;41.57;16.40;;;;;;;3.85;44.01;101676.73;126236;1099;104246;-78
2021/04/11 04:05:26;;;;;;;42.33;16.50;;;;;;;3.90;44.52;101690.09;126176;1099;104567;-78
2021/04/11 04:07:59;;;;;;;39.87;16.37;;;;;;;3.92;44.45;101693.72;126249;1099;104325;-78
2021/04/11 04:10:34;;;;;;;40.43;16.30;;;;;;;3.97;44.55;101694.98;126252;1099;104197;-78
2021/04/11 04:13:21;;;;;;;39.47;16.03;;;;;;;3.99;45.04;101695.11;126264;1099;104226;-79
2021/04/11 04:16:09;;;;;;;39.80;16.53;;;;;;;4.00;44.44;101692.64;126169;1099;108758;-77
2021/04/11 04:19:01;;;;;;;43.57;17.70;;;;;;;4.04;44.41;101699.02;126273;1099;104195;-78
2021/04/11 04:21:47;;;;;;;37.50;16.50;;;;;;;4.06;44.35;101692.24;126257;1098;104144;-78
2021/04/11 04:24:27;;;;;;;36.35;16.10;;;;;;;4.14;44.82;101698.95;126215;1099;104146;-78
2021/04/11 04:27:09;;;;;;;36.63;15.77;;;;;;;4.21;44.71;101696.08;126278;1099;104172;-78
2021/04/11 04:29:55;;;;;;;32.30;14.87;;;;;;;4.24;44.34;101703.19;126185;1099;104254;-77
2021/04/11 04:32:33;;;;;;;33.73;15.20;;;;;;;4.30;45.30;101703.69;126249;1099;104198;-78
2021/04/11 04:35:13;;;;;;;35.83;16.00;;;;;;;4.38;44.36;101699.09;126121;1099;104168;-77
2021/04/11 04:37:52;;;;;;;41.90;18.60;;;;;;;4.45;44.70;101701.41;126264;1099;104208;-77
2021/04/11 04:40:33;;;;;;;53.13;23.90;;;;;;;4.54;44.90;101698.65;126224;1099;104329;-78
2021/04/11 04:43:16;;;;;;;40.50;16.97;;;;;;;4.62;45.15;101700.16;126225;1099;104146;-78
2021/04/11 04:45:55;;;;;;;;;;;;;;;4.70;45.79;101705.95;126194;1098;104137;-77
2021/04/11 04:48:31;;;;;;;36.03;14.17;;;;;;;4.74;44.96;101705.42;126301;1098;104280;-78
2021/04/11 04:51:12;;;;;;;34.37;14.57;;;;;;;4.73;45.29;101711.40;126153;1099;104159;-78
2021/04/11 04:53:48;;;;;;;33.57;14.73;;;;;;;4.71;45.11;101707.78;126182;1099;104645;-78
2021/04/11 04:56:31;;;;;;;36.77;15.77;;;;;;;4.68;44.52;101701.53;126179;1099;104182;-78
2021/04/11 04:59:05;;;;;;;39.70;15.63;;;;;;;4.73;45.20;101712.30;126324;1099;104146;-78
2021/04/11 05:01:38;;;;;;;36.30;15.50;;;;;;;4.82;45.35;101704.32;126292;1098;104153;-79
2021/04/11 05:04:18;;;;;;;35.83;15.00;;;;;;;4.91;44.93;101712.84;126248;1099;104631;-77
2021/04/11 05:06:55;;;;;;;37.20;14.27;;;;;;;4.99;45.33;101711.73;126280;1099;104267;-77
2021/04/11 05:09:48;;;;;;;36.10;16.37;;;;;;;5.03;45.56;101713.80;126226;1098;104144;-78
2021/04/11 05:12:35;;;;;;;34.07;16.00;;;;;;;5.14;45.48;101701.61;126258;1099;104153;-78
2021/04/11 05:15:12;;;;;;;33.50;14.20;;;;;;;5.25;45.01;101707.64;126216;1099;104146;-78
2021/04/11 05:17:59;;;;;;;38.13;13.93;;;;;;;5.33;44.96;101703.92;126210;1098;104175;-78
2021/04/11 05:20:32;;;;;;;31.15;13.40;;;;;;;5.42;45.14;101708.00;126305;1098;104197;-78
2021/04/11 05:23:13;;;;;;;30.87;13.67;;;;;;;5.48;45.39;101703.26;126167;1099;104207;-77
2021/04/11 05:25:50;;;;;;;31.27;13.93;;;;;;;5.55;45.27;101709.05;126160;1099;104146;-78
2021/04/11 05:28:30;;;;;;;31.60;13.83;;;;;;;5.63;45.10;101709.62;126211;1099;104271;-78
2021/04/11 05:31:05;;;;;;;29.55;13.50;;;;;;;5.75;45.59;101715.75;126314;1099;104142;-78
2021/04/11 05:33:36;;;;;;;32.57;13.53;;;;;;;5.89;45.57;101718.45;126260;1099;104608;-78
2021/04/11 05:36:17;;;;;;;28.33;11.67;;;;;;;6.04;45.42;101713.52;126180;1099;104212;-79
2021/04/11 05:38:57;;;;;;;24.63;11.73;;;;;;;6.16;45.39;101721.33;126294;1099;104248;-77
2021/04/11 05:41:35;;;;;;;24.03;10.73;;;;;;;6.29;45.25;101722.34;126268;1099;104223;-79
2021/04/11 05:44:14;;;;;;;23.00;10.67;;;;;;;6.45;45.06;101726.95;126176;1099;104194;-77
2021/04/11 05:47:02;;;;;;;23.57;10.30;;;;;;;6.57;45.13;101718.19;126146;1099;104184;-78
2021/04/11 05:49:43;;;;;;;24.93;10.30;;;;;;;6.67;44.92;101728.48;126220;1099;104220;-77
2021/04/11 05:52:17;;;;;;;22.40;10.27;;;;;;;6.77;44.80;101725.72;126241;1099;104322;-77
2021/04/11 05:54:50;;;;;;;24.73;10.47;;;;;;;6.86;44.60;101727.15;126252;1099;104149;-78
2021/04/11 05:57:24;;;;;;;25.53;10.17;;;;;;;6.99;44.90;101719.39;126225;1098;104198;-78
2021/04/11 05:59:58;;;;;;;25.47;10.00;;;;;;;7.11;44.71;101722.86;126171;1099;104146;-78
2021/04/11 06:02:42;;;;;;;22.97;9.37;;;;;;;7.24;44.92;101716.77;126220;1099;104278;-78
2021/04/11 06:05:18;;;;;;;21.17;9.20;;;;;;;7.36;44.52;101728.05;126314;1099;104149;-77
2021/04/11 06:07:53;;;;;;;20.77;8.80;;;;;;;7.48;44.88;101719.23;126172;1099;104181;-77
2021/04/11 06:10:29;;;;;;;19.97;8.00;;;;;;;7.60;44.08;101722.67;126288;1099;104146;-77
2021/04/11 06:13:03;;;;;;;18.40;8.00;;;;;;;7.69;44.51;101722.39;126193;1099;104171;-77
2021/04/11 06:15:35;;;;;;;18.33;8.03;;;;;;;7.82;44.45;101724.11;126238;1099;104217;-77
2021/04/11 06:18:08;;;;;;;16.97;7.43;;;;;;;7.94;44.33;101718.80;126227;1099;104205;-77
2021/04/11 06:20:38;;;;;;;17.07;7.83;;;;;;;8.06;44.14;101719.61;126283;1099;104194;-78
2021/04/11 06:23:28;;;;;;;17.70;7.55;;;;;;;8.17;43.74;101722.92;126294;1099;104222;-77
2021/04/11 06:26:12;;;;;;;19.00;7.80;;;;;;;8.32;43.92;101720.38;126294;1098;104195;-77
2021/04/11 06:28:47;;;;;;;;;;;;;;;8.48;43.90;101731.06;126213;1099;107606;-77
2021/04/11 06:31:23;;;;;;;18.97;8.10;;;;;;;8.59;44.15;101730.02;126270;1099;104168;-78
2021/04/11 06:33:57;;;;;;;18.07;7.62;;;;;;;8.68;43.84;101716.62;126294;1099;104194;-77
2021/04/11 06:36:31;;;;;;;18.37;7.93;;;;;;;8.84;43.76;101722.83;126157;1098;104172;-78
2021/04/11 06:39:05;;;;;;;19.92;8.20;;;;;;;8.93;43.36;101715.55;126207;1099;119427;-79
2021/04/11 06:42:02;;;;;;;17.50;7.28;;;;;;;9.07;43.90;101714.67;126166;1099;104160;-78
2021/04/11 06:44:52;;;;;;;50.40;9.45;;;;;;;9.27;43.82;101721.12;126208;1099;104213;-78
2021/04/11 06:47:44;;;;;;;18.03;8.03;;;;;;;9.42;43.61;101718.50;126141;1099;105378;-77
2021/04/11 06:50:25;;;;;;;20.27;7.77;;;;;;;9.59;43.06;101716.88;126277;1099;104165;-77
2021/04/11 06:53:14;;;;;;;18.37;7.53;;;;;;;9.78;43.29;101725.83;126235;1099;104165;-79
2021/04/11 06:56:00;;;;;;;19.00;7.40;;;;;;;9.92;43.20;101724.91;126154;1099;104326;-77
2021/04/11 06:58:47;;;;;;;18.37;7.30;;;;;;;9.98;43.03;101721.75;126191;1099;104204;-77
2021/04/11 07:01:43;;;;;;;22.90;7.23;;;;;;;10.14;43.11;101721.79;126175;1099;104140;-77
2021/04/11 07:04:33;;;;;;;16.83;7.33;;;;;;;10.32;42.17;101724.56;126247;1099;104680;-77
2021/04/11 07:07:32;;;;;;;20.97;7.47;;;;;;;10.55;42.35;101722.34;126279;1099;104147;-77
2021/04/11 07:10:27;;;;;;;18.73;8.27;;;;;;;10.77;42.18;101714.83;126157;1099;108140;-78
2021/04/11 07:13:39;;;;;;;16.70;7.40;;;;;;;10.95;41.64;101719.27;126236;1099;104258;-77
2021/04/11 07:16:35;;;;;;;20.20;7.10;;;;;;;11.15;41.81;101721.22;126260;1099;104220;-77
2021/04/11 07:19:24;;;;;;;18.00;6.73;;;;;;;11.36;41.60;101715.31;126256;1099;104168;-78
2021/04/11 07:22:20;;;;;;;17.57;6.70;;;;;;;11.60;41.25;101715.65;126291;1099;104159;-79
2021/04/11 07:25:07;;;;;;;15.70;6.63;;;;;;;11.82;41.26;101719.36;126257;1099;104220;-78
2021/04/11 07:27:56;;;;;;;15.57;6.87;;;;;;;12.01;41.26;101715.95;126243;1099;104153;-77
2021/04/11 07:30:40;;;;;;;13.07;6.13;;;;;;;12.30;41.25;101711.21;126251;1098;104214;-77
2021/04/11 07:33:31;;;;;;;14.30;6.57;;;;;;;12.53;41.18;101718.47;126262;1099;104666;-78
2021/04/11 07:36:18;;;;;;;15.63;6.83;;;;;;;12.71;40.60;101713.14;126248;1099;104181;-78
2021/04/11 07:39:07;;;;;;;15.87;6.27;;;;;;;12.74;39.60;101713.28;126093;1099;104136;-78
2021/04/11 07:41:56;;;;;;;16.60;6.10;;;;;;;12.71;39.54;101718.41;126290;1099;104165;-79
2021/04/11 07:44:44;;;;;;;13.47;5.83;;;;;;;12.84;39.85;101718.97;126237;1099;104214;-77
2021/04/11 07:47:29;;;;;;;9.93;5.13;;;;;;;13.02;39.69;101716.30;126274;1099;104169;-79
2021/04/11 07:50:15;;;;;;;14.17;5.67;;;;;;;13.38;39.69;101702.97;126161;1099;104281;-77
2021/04/11 07:53:03;;;;;;;10.43;5.00;;;;;;;13.60;39.14;101713.62;126253;1099;104152;-77
2021/04/11 07:55:46;;;;;;;10.90;5.50;;;;;;;13.68;37.94;101713.02;126294;1099;105080;-78
2021/04/11 07:58:33;;;;;;;9.28;4.80;;;;;;;13.64;38.10;101706.73;126257;1099;104191;-77
2021/04/11 08:01:16;;;;;;;8.80;4.33;;;;;;;13.61;37.13;101707.48;126189;1099;107169;-77
2021/04/11 08:04:06;;;;;;;10.87;4.47;;;;;;;13.64;37.81;101712.00;126237;1098;104691;-78
2021/04/11 08:09:46;;;;;;;7.53;3.67;;;;;;;13.81;36.79;101710.08;125229;1102;104184;-77
2021/04/11 08:15:36;;;;;;;12.40;4.10;;;;;;;13.87;35.92;101710.34;125207;1102;105473;-77
2021/04/11 08:18:31;;;;;;;10.05;4.00;;;;;;;13.95;36.75;101708.91;125151;1102;104217;-79
2021/04/11 08:21:07;;;;;;;;;;;;;;;13.95;32.80;101705.38;125205;1102;104149;-77
2021/04/11 08:24:03;;;;;;;8.50;4.30;;;;;;;13.98;35.57;101703.75;125169;1102;104240;-77
2021/04/11 08:26:58;;;;;;;9.23;4.77;;;;;;;13.91;33.67;101708.72;125031;1102;104316;-77
2021/04/11 08:29:43;;;;;;;9.57;5.47;;;;;;;13.56;33.15;101697.60;125152;1102;104143;-77
2021/04/11 08:32:36;;;;;;;12.97;5.47;;;;;;;13.40;32.90;101696.02;125207;1102;104140;-78
2021/04/11 08:35:16;;;;;;;16.80;5.63;;;;;;;13.43;33.68;101696.16;125186;1102;104281;-77
2021/04/11 08:38:10;;;;;;;9.50;4.77;;;;;;;13.53;32.97;101693.09;125215;1102;104263;-77
2021/04/11 08:40:52;;;;;;;11.90;4.80;;;;;;;13.70;33.98;101688.53;125122;1102;102211;-77
2021/04/11 08:43:36;;;;;;;10.43;5.00;;;;;;;13.78;33.92;101695.02;125233;1102;104194;-77
2021/04/11 08:46:15;;;;;;;11.53;4.97;;;;;;;13.81;33.37;101699.53;125100;1102;104274;-78
2021/04/11 08:48:56;;;;;;;9.77;5.40;;;;;;;13.83;33.92;101698.73;125203;1102;104143;-78
2021/04/11 08:51:33;;;;;;;11.47;4.90;;;;;;;13.87;34.05;101686.59;125199;1102;104265;-78
2021/04/11 08:54:19;;;;;;;10.27;5.13;;;;;;;14.00;32.92;101685.34;125127;1102;104140;-78
2021/04/11 08:56:58;;;;;;;13.07;5.10;;;;;;;14.13;32.76;101678.81;125061;1102;104155;-78
2021/04/11 09:02:44;;;;;;;10.27;5.30;;;;;;;14.41;33.01;101678.16;125013;1106;104143;-78
2021/04/11 09:05:26;;;;;;;11.70;5.77;;;;;;;14.67;33.27;101665.98;125045;1102;104294;-77
2021/04/11 09:08:12;;;;;;;12.63;5.30;;;;;;;14.78;33.11;101661.10;125037;1102;104207;-77
2021/04/11 09:10:55;;;;;;;13.13;5.77;;;;;;;14.76;33.62;101661.88;125231;1102;104146;-78
2021/04/11 09:13:37;;;;;;;10.80;4.90;;;;;;;14.77;32.30;101653.11;125146;1102;104146;-79
2021/04/11 09:16:12;;;;;;;12.23;5.53;;;;;;;14.58;31.81;101651.50;125102;1102;104288;-78
2021/04/11 09:19:07;;;;;;;12.67;5.50;;;;;;;14.71;32.52;101648.53;125157;1102;104140;-78
2021/04/11 09:21:50;;;;;;;9.87;5.13;;;;;;;14.85;31.67;101651.64;125199;1102;104226;-77
2021/04/11 09:24:23;;;;;;;10.23;5.03;;;;;;;14.86;32.17;101645.53;125104;1102;104137;-77
2021/04/11 09:27:13;;;;;;;14.63;5.30;;;;;;;14.99;32.44;101644.22;125473;1102;104143;-78
2021/04/11 09:29:51;;;;;;;11.93;5.70;;;;;;;15.03;31.89;101636.45;125163;1102;104204;-78
2021/04/11 09:32:44;;;;;;;11.40;5.60;;;;;;;15.00;31.99;101633.70;124954;1102;104237;-78
2021/04/11 09:35:23;;;;;;;12.40;5.37;;;;;;;15.03;32.72;101632.92;125142;1102;104300;-79
2021/04/11 09:38:15;;;;;;;13.05;5.95;;;;;;;15.12;31.69;101642.94;125103;1102;104220;-78
2021/04/11 09:41:03;;;;;;;13.17;6.00;;;;;;;15.08;31.63;101632.25;125204;1102;104152;-78
2021/04/11 09:43:53;;;;;;;13.80;5.60;;;;;;;15.09;32.61;101628.74;125144;1102;104201;-77
2021/04/11 09:46:43;;;;;;;16.67;6.20;;;;;;;15.22;32.19;101623.89;125172;1102;104231;-78
2021/04/11 09:49:35;;;;;;;13.07;5.80;;;;;;;15.36;30.73;101629.66;125200;1102;104280;-78
2021/04/11 09:52:25;;;;;;;12.03;5.10;;;;;;;15.25;30.89;101622.27;125226;1102;104140;-78
2021/04/11 09:55:00;;;;;;;14.20;6.40;;;;;;;15.23;31.05;101617.77;125196;1102;104271;-78
2021/04/11 10:00:43;;;;;;;14.67;5.83;;;;;;;15.00;30.28;101615.20;125200;1102;105447;-77
2021/04/11 10:03:27;;;;;;;14.75;6.00;;;;;;;15.06;31.43;101615.42;125117;1102;104208;-78
2021/04/11 10:06:11;;;;;;;12.60;5.90;;;;;;;15.00;30.26;101606.38;125230;1102;104171;-78
2021/04/11 10:08:53;;;;;;;10.47;4.93;;;;;;;14.93;30.14;101602.64;125136;1102;104159;-77
2021/04/11 10:11:39;;;;;;;9.70;5.17;;;;;;;14.92;30.15;101603.47;125069;1102;104274;-77
2021/04/11 10:14:18;;;;;;;12.00;4.70;;;;;;;14.90;29.10;101600.77;125172;1102;104298;-77
2021/04/11 10:16:58;;;;;;;22.03;9.73;;;;;;;14.83;28.83;101604.03;124927;1102;104239;-77
2021/04/11 10:19:37;;;;;;;12.67;5.70;;;;;;;14.78;29.19;101596.80;125115;1102;104159;-78
2021/04/11 10:22:25;;;;;;;13.97;5.80;;;;;;;14.90;29.44;101592.84;125087;1102;118810;-78
2021/04/11 10:25:05;;;;;;;10.37;4.53;;;;;;;14.95;29.02;101587.72;125088;1099;104172;-76
2021/04/11 10:27:43;;;;;;;10.10;5.35;;;;;;;14.94;29.31;101591.20;125061;1102;104210;-76
2021/04/11 10:30:16;;;;;;;10.73;5.13;;;;;;;15.06;30.30;101585.45;125119;1102;104278;-76
2021/04/11 10:32:50;;;;;;;12.07;5.10;;;;;;;15.18;30.27;101591.17;125124;1102;104162;-76
2021/04/11 10:35:26;;;;;;;10.70;5.40;;;;;;;15.27;29.63;101590.59;125093;1102;104191;-75
2021/04/11 10:38:01;;;;;;;15.43;6.00;;;;;;;15.31;28.75;101596.88;125163;1102;104143;-76
2021/04/11 10:40:42;;;;;;;9.97;5.30;;;;;;;15.28;29.84;101592.37;125214;1102;104216;-78
2021/04/11 10:43:30;;;;;;;10.43;5.20;;;;;;;15.28;29.92;101585.32;125173;1102;104146;-77
2021/04/11 10:46:03;;;;;;;11.43;5.13;;;;;;;15.30;29.89;101574.80;125163;1099;104139;-77
2021/04/11 10:48:50;;;;;;;12.50;5.07;;;;;;;15.40;30.05;101576.03;125169;1102;104246;-77
2021/04/11 10:51:38;;;;;;;10.77;4.50;;;;;;;15.42;29.11;101574.32;125035;1099;104139;-78
2021/04/11 10:54:34;;;;;;;9.47;4.53;;;;;;;15.44;27.08;101565.59;125235;1102;104172;-77
2021/04/11 10:57:23;;;;;;;11.10;5.00;;;;;;;15.39;29.30;101566.28;125169;1102;104258;-78
2021/04/11 11:00:05;;;;;;;12.27;5.43;;;;;;;15.50;28.53;101571.93;125211;1102;104287;-78
2021/04/11 11:03:09;;;;;;;8.93;4.80;;;;;;;15.60;29.49;101566.98;125190;1102;104239;-78
2021/04/11 11:05:45;;;;;;;;;;;;;;;15.59;27.68;101562.53;125159;1102;104280;-78
2021/04/11 11:08:49;;;;;;;12.37;4.73;;;;;;;15.60;28.77;101558.16;125146;1102;104293;-77
2021/04/11 11:11:54;;;;;;;8.80;4.60;;;;;;;15.61;27.67;101559.94;125217;1102;104159;-78
2021/04/11 11:14:51;;;;;;;10.27;4.53;;;;;;;15.69;28.87;101558.45;125179;1099;104287;-77
2021/04/11 11:17:41;;;;;;;10.57;4.83;;;;;;;15.84;29.05;101557.16;125181;1102;104169;-78
2021/04/11 11:20:19;;;;;;;11.80;4.80;;;;;;;15.77;28.22;101554.33;125161;1102;104139;-77
2021/04/11 11:23:13;;;;;;;11.13;4.87;;;;;;;15.72;29.12;101547.97;125123;1102;104165;-77
2021/04/11 11:25:59;;;;;;;11.00;4.57;;;;;;;15.71;28.43;101540.88;125217;1102;104272;-77
2021/04/11 11:28:54;;;;;;;7.23;4.33;;;;;;;15.70;28.36;101541.70;125223;1102;104139;-77
2021/04/11 11:31:37;;;;;;;9.23;4.60;;;;;;;15.74;28.61;101532.14;125212;1100;104163;-78
2021/04/11 11:34:19;;;;;;;9.37;5.30;;;;;;;15.79;28.66;101539.39;125096;1099;104131;-78
2021/04/11 11:37:00;;;;;;;9.67;4.77;;;;;;;15.78;29.03;101534.05;125224;1102;104301;-77
2021/04/11 11:39:37;;;;;;;10.93;4.90;;;;;;;15.86;29.06;101521.94;125244;1102;104168;-76
2021/04/11 11:42:24;;;;;;;10.27;5.30;;;;;;;15.94;28.59;101514.23;125163;1099;104158;-78
2021/04/11 11:45:05;;;;;;;16.77;5.33;;;;;;;16.02;29.02;101514.45;125257;1102;104137;-78
2021/04/11 11:47:48;;;;;;;12.23;5.27;;;;;;;16.00;28.53;101514.41;125178;1102;104177;-78
2021/04/11 11:50:24;;;;;;;7.47;4.70;;;;;;;15.90;28.26;101505.31;125207;1102;104149;-78
2021/04/11 11:52:58;;;;;;;10.03;5.13;;;;;;;15.89;27.93;101502.61;125132;1102;104151;-77
2021/04/11 11:55:31;;;;;;;10.48;4.92;;;;;;;15.90;28.61;101496.48;125194;1102;104147;-78
2021/04/11 11:58:09;;;;;;;13.07;5.00;;;;;;;15.95;28.32;101500.16;125245;1102;104268;-77
2021/04/11 12:00:42;;;;;;;9.67;4.90;;;;;;;16.01;28.43;101496.80;125182;1102;104149;-78
2021/04/11 12:03:24;;;;;;;10.97;5.30;;;;;;;16.04;28.65;101487.19;125225;1102;104197;-77
2021/04/11 12:06:02;;;;;;;10.50;5.23;;;;;;;16.02;28.28;101478.31;125232;1101;104661;-77
2021/04/11 12:08:44;;;;;;;12.20;5.37;;;;;;;16.03;28.60;101493.33;125255;1100;104200;-77
2021/04/11 12:11:17;;;;;;;10.93;4.93;;;;;;;16.07;28.26;101479.34;125250;1102;104925;-77
2021/04/11 12:14:02;;;;;;;10.10;4.87;;;;;;;16.08;28.20;101481.14;125237;1102;104157;-76